Terminal Aerodrome Forecast
Issued by NWS Chicago, IL

Home | Current Version | Previous Version | Text Only | Print | Product List | Glossary Off
Versions: 1 2 3 4 5 6 7 8 9 10 11 12 13 14 15 16 17 18 19 20 21 22 23 24 25 26

000
FTUS43 KLOT 271740
TAFRFD
TAF
KRFD 271740Z 2718/2818 20010KT P6SM BKN017 BKN025
     FM271930 22010KT P6SM BKN025 BKN035
     FM272100 22011KT P6SM BKN035
     FM280000 VRB04KT P6SM BKN040
     FM280600 VRB02KT 6SM BR BKN015
     FM281500 14005KT P6SM SCT035 BKN250=

USA.gov is the U.S. government's official web portal to all federal, state and local government web resources and services.